sensor_id;sensor_type;location;lat;lon;timestamp;P1;durP1;ratioP1;P2;durP2;ratioP2
17832;SDS011;9041;49.718;21.798;2023-04-25T00:00:01;8.70;;;6.45;;
17832;SDS011;9041;49.718;21.798;2023-04-25T00:02:31;10.32;;;6.18;;
17832;SDS011;9041;49.718;21.798;2023-04-25T00:05:01;10.80;;;6.25;;
17832;SDS011;9041;49.718;21.798;2023-04-25T00:07:28;10.32;;;6.15;;
17832;SDS011;9041;49.718;21.798;2023-04-25T00:09:56;8.82;;;5.80;;
17832;SDS011;9041;49.718;21.798;2023-04-25T00:12:23;10.30;;;6.07;;
17832;SDS011;9041;49.718;21.798;2023-04-25T00:14:50;8.70;;;5.82;;
17832;SDS011;9041;49.718;21.798;2023-04-25T00:17:17;11.30;;;6.43;;
17832;SDS011;9041;49.718;21.798;2023-04-25T00:19:45;9.15;;;5.40;;
17832;SDS011;9041;49.718;21.798;2023-04-25T00:22:13;10.10;;;6.30;;
17832;SDS011;9041;49.718;21.798;2023-04-25T00:24:40;8.98;;;6.07;;
17832;SDS011;9041;49.718;21.798;2023-04-25T00:27:07;10.32;;;6.47;;
17832;SDS011;9041;49.718;21.798;2023-04-25T00:29:35;7.68;;;5.28;;
17832;SDS011;9041;49.718;21.798;2023-04-25T00:32:02;8.52;;;5.75;;
17832;SDS011;9041;49.718;21.798;2023-04-25T00:34:29;10.27;;;6.20;;
17832;SDS011;9041;49.718;21.798;2023-04-25T00:36:56;8.13;;;5.90;;
17832;SDS011;9041;49.718;21.798;2023-04-25T00:39:25;9.23;;;6.18;;
17832;SDS011;9041;49.718;21.798;2023-04-25T00:41:51;10.80;;;5.78;;
17832;SDS011;9041;49.718;21.798;2023-04-25T00:44:19;9.23;;;6.03;;
17832;SDS011;9041;49.718;21.798;2023-04-25T00:46:47;8.60;;;5.78;;
17832;SDS011;9041;49.718;21.798;2023-04-25T00:49:14;10.27;;;6.10;;
17832;SDS011;9041;49.718;21.798;2023-04-25T00:51:42;11.07;;;6.22;;
17832;SDS011;9041;49.718;21.798;2023-04-25T00:54:10;10.00;;;6.45;;
17832;SDS011;9041;49.718;21.798;2023-04-25T00:56:38;9.27;;;5.80;;
17832;SDS011;9041;49.718;21.798;2023-04-25T00:59:14;9.45;;;6.00;;
17832;SDS011;9041;49.718;21.798;2023-04-25T01:01:41;12.30;;;5.97;;
17832;SDS011;9041;49.718;21.798;2023-04-25T01:04:07;11.50;;;6.70;;
17832;SDS011;9041;49.718;21.798;2023-04-25T01:06:34;10.75;;;7.03;;
17832;SDS011;9041;49.718;21.798;2023-04-25T01:09:01;10.65;;;6.28;;
17832;SDS011;9041;49.718;21.798;2023-04-25T01:11:29;11.38;;;6.68;;
17832;SDS011;9041;49.718;21.798;2023-04-25T01:13:58;11.27;;;7.20;;
17832;SDS011;9041;49.718;21.798;2023-04-25T01:16:25;13.57;;;6.93;;
17832;SDS011;9041;49.718;21.798;2023-04-25T01:18:52;13.52;;;7.28;;
17832;SDS011;9041;49.718;21.798;2023-04-25T01:21:21;11.48;;;7.07;;
17832;SDS011;9041;49.718;21.798;2023-04-25T01:23:51;12.05;;;6.95;;
17832;SDS011;9041;49.718;21.798;2023-04-25T01:26:18;16.15;;;7.38;;
17832;SDS011;9041;49.718;21.798;2023-04-25T01:28:46;11.63;;;7.47;;
17832;SDS011;9041;49.718;21.798;2023-04-25T01:31:13;11.10;;;7.38;;
17832;SDS011;9041;49.718;21.798;2023-04-25T01:33:41;11.70;;;7.63;;
17832;SDS011;9041;49.718;21.798;2023-04-25T01:36:08;14.05;;;7.70;;
17832;SDS011;9041;49.718;21.798;2023-04-25T01:38:36;11.40;;;7.45;;
17832;SDS011;9041;49.718;21.798;2023-04-25T01:41:03;15.00;;;8.18;;
17832;SDS011;9041;49.718;21.798;2023-04-25T01:43:31;15.43;;;7.75;;
17832;SDS011;9041;49.718;21.798;2023-04-25T01:45:58;10.88;;;7.63;;
17832;SDS011;9041;49.718;21.798;2023-04-25T01:48:25;11.95;;;7.47;;
17832;SDS011;9041;49.718;21.798;2023-04-25T01:50:52;12.43;;;7.20;;
17832;SDS011;9041;49.718;21.798;2023-04-25T01:53:19;12.75;;;8.02;;
17832;SDS011;9041;49.718;21.798;2023-04-25T01:55:47;16.75;;;7.97;;
17832;SDS011;9041;49.718;21.798;2023-04-25T01:58:14;11.48;;;7.47;;
17832;SDS011;9041;49.718;21.798;2023-04-25T02:00:41;11.23;;;7.28;;
17832;SDS011;9041;49.718;21.798;2023-04-25T02:03:07;11.60;;;7.38;;
17832;SDS011;9041;49.718;21.798;2023-04-25T02:05:35;12.60;;;7.25;;
17832;SDS011;9041;49.718;21.798;2023-04-25T02:08:03;12.27;;;7.88;;
17832;SDS011;9041;49.718;21.798;2023-04-25T02:10:30;12.00;;;7.80;;
17832;SDS011;9041;49.718;21.798;2023-04-25T02:12:59;11.07;;;7.57;;
17832;SDS011;9041;49.718;21.798;2023-04-25T02:15:26;12.07;;;7.85;;
17832;SDS011;9041;49.718;21.798;2023-04-25T02:17:53;12.13;;;7.78;;
17832;SDS011;9041;49.718;21.798;2023-04-25T02:20:20;12.60;;;7.55;;
17832;SDS011;9041;49.718;21.798;2023-04-25T02:22:47;11.65;;;7.38;;
17832;SDS011;9041;49.718;21.798;2023-04-25T02:25:14;12.15;;;7.38;;
17832;SDS011;9041;49.718;21.798;2023-04-25T02:27:45;11.15;;;7.25;;
17832;SDS011;9041;49.718;21.798;2023-04-25T02:30:13;11.27;;;7.38;;
17832;SDS011;9041;49.718;21.798;2023-04-25T02:32:40;12.30;;;7.03;;
17832;SDS011;9041;49.718;21.798;2023-04-25T02:35:07;11.77;;;7.13;;
17832;SDS011;9041;49.718;21.798;2023-04-25T02:37:35;10.75;;;6.57;;
17832;SDS011;9041;49.718;21.798;2023-04-25T02:40:03;11.90;;;7.05;;
17832;SDS011;9041;49.718;21.798;2023-04-25T02:42:31;9.93;;;6.28;;
17832;SDS011;9041;49.718;21.798;2023-04-25T02:44:58;13.10;;;6.97;;
17832;SDS011;9041;49.718;21.798;2023-04-25T02:47:27;10.27;;;6.75;;
17832;SDS011;9041;49.718;21.798;2023-04-25T02:49:54;11.02;;;6.88;;
17832;SDS011;9041;49.718;21.798;2023-04-25T02:52:21;9.85;;;6.85;;
17832;SDS011;9041;49.718;21.798;2023-04-25T02:54:48;10.73;;;6.22;;
17832;SDS011;9041;49.718;21.798;2023-04-25T02:57:15;9.18;;;6.07;;
17832;SDS011;9041;49.718;21.798;2023-04-25T02:59:42;17.33;;;7.05;;
17832;SDS011;9041;49.718;21.798;2023-04-25T03:02:09;12.55;;;6.70;;
17832;SDS011;9041;49.718;21.798;2023-04-25T03:04:37;12.35;;;7.35;;
17832;SDS011;9041;49.718;21.798;2023-04-25T03:07:04;9.98;;;6.68;;
17832;SDS011;9041;49.718;21.798;2023-04-25T03:09:30;16.52;;;7.85;;
17832;SDS011;9041;49.718;21.798;2023-04-25T03:11:57;12.13;;;7.60;;
17832;SDS011;9041;49.718;21.798;2023-04-25T03:14:24;11.73;;;7.53;;
17832;SDS011;9041;49.718;21.798;2023-04-25T03:16:51;10.25;;;7.07;;
17832;SDS011;9041;49.718;21.798;2023-04-25T03:19:18;11.93;;;7.60;;
17832;SDS011;9041;49.718;21.798;2023-04-25T03:21:46;10.77;;;7.13;;
17832;SDS011;9041;49.718;21.798;2023-04-25T03:24:13;15.40;;;8.68;;
17832;SDS011;9041;49.718;21.798;2023-04-25T03:26:40;13.93;;;8.57;;
17832;SDS011;9041;49.718;21.798;2023-04-25T03:29:07;12.65;;;8.57;;
17832;SDS011;9041;49.718;21.798;2023-04-25T03:31:34;15.73;;;8.30;;
17832;SDS011;9041;49.718;21.798;2023-04-25T03:34:01;12.43;;;7.40;;
17832;SDS011;9041;49.718;21.798;2023-04-25T03:36:28;14.20;;;8.25;;
17832;SDS011;9041;49.718;21.798;2023-04-25T03:38:56;13.15;;;8.05;;
17832;SDS011;9041;49.718;21.798;2023-04-25T03:41:23;11.38;;;7.65;;
17832;SDS011;9041;49.718;21.798;2023-04-25T03:43:50;13.65;;;7.93;;
17832;SDS011;9041;49.718;21.798;2023-04-25T03:46:16;13.95;;;7.72;;
17832;SDS011;9041;49.718;21.798;2023-04-25T03:48:43;12.35;;;7.60;;
17832;SDS011;9041;49.718;21.798;2023-04-25T03:51:10;13.23;;;8.38;;
17832;SDS011;9041;49.718;21.798;2023-04-25T03:53:37;14.65;;;9.20;;
17832;SDS011;9041;49.718;21.798;2023-04-25T03:56:06;15.10;;;9.00;;
17832;SDS011;9041;49.718;21.798;2023-04-25T03:58:33;11.43;;;7.53;;
17832;SDS011;9041;49.718;21.798;2023-04-25T04:01:00;13.60;;;8.35;;
17832;SDS011;9041;49.718;21.798;2023-04-25T04:03:28;12.85;;;8.15;;
17832;SDS011;9041;49.718;21.798;2023-04-25T04:05:54;14.68;;;8.15;;
17832;SDS011;9041;49.718;21.798;2023-04-25T04:08:21;13.13;;;7.95;;
17832;SDS011;9041;49.718;21.798;2023-04-25T04:10:48;12.57;;;7.78;;
17832;SDS011;9041;49.718;21.798;2023-04-25T04:13:16;14.20;;;7.57;;
17832;SDS011;9041;49.718;21.798;2023-04-25T04:15:43;12.88;;;7.80;;
17832;SDS011;9041;49.718;21.798;2023-04-25T04:18:10;14.32;;;8.20;;
17832;SDS011;9041;49.718;21.798;2023-04-25T04:20:37;13.13;;;8.05;;
17832;SDS011;9041;49.718;21.798;2023-04-25T04:23:04;13.15;;;7.75;;
17832;SDS011;9041;49.718;21.798;2023-04-25T04:25:31;14.70;;;8.48;;
17832;SDS011;9041;49.718;21.798;2023-04-25T04:27:58;12.32;;;7.68;;
17832;SDS011;9041;49.718;21.798;2023-04-25T04:30:27;12.98;;;7.43;;
17832;SDS011;9041;49.718;21.798;2023-04-25T04:32:56;13.93;;;7.80;;
17832;SDS011;9041;49.718;21.798;2023-04-25T04:35:23;14.82;;;8.20;;
17832;SDS011;9041;49.718;21.798;2023-04-25T04:37:54;13.05;;;8.50;;
17832;SDS011;9041;49.718;21.798;2023-04-25T04:40:21;13.90;;;8.05;;
17832;SDS011;9041;49.718;21.798;2023-04-25T04:42:48;11.23;;;8.00;;
17832;SDS011;9041;49.718;21.798;2023-04-25T04:45:15;15.38;;;8.57;;
17832;SDS011;9041;49.718;21.798;2023-04-25T04:47:43;13.18;;;7.97;;
17832;SDS011;9041;49.718;21.798;2023-04-25T04:50:11;14.88;;;7.90;;
17832;SDS011;9041;49.718;21.798;2023-04-25T04:52:38;14.10;;;7.97;;
17832;SDS011;9041;49.718;21.798;2023-04-25T04:55:05;13.23;;;7.93;;
17832;SDS011;9041;49.718;21.798;2023-04-25T04:57:33;15.52;;;6.80;;
17832;SDS011;9041;49.718;21.798;2023-04-25T05:00:00;11.25;;;5.95;;
17832;SDS011;9041;49.718;21.798;2023-04-25T05:02:29;7.25;;;3.97;;
17832;SDS011;9041;49.718;21.798;2023-04-25T05:04:58;6.97;;;3.30;;
17832;SDS011;9041;49.718;21.798;2023-04-25T05:07:24;5.63;;;2.95;;
17832;SDS011;9041;49.718;21.798;2023-04-25T05:09:51;5.15;;;2.65;;
17832;SDS011;9041;49.718;21.798;2023-04-25T05:12:18;6.30;;;3.25;;
17832;SDS011;9041;49.718;21.798;2023-04-25T05:14:45;5.57;;;3.00;;
17832;SDS011;9041;49.718;21.798;2023-04-25T05:17:12;8.27;;;2.58;;
17832;SDS011;9041;49.718;21.798;2023-04-25T05:19:39;4.22;;;2.22;;
17832;SDS011;9041;49.718;21.798;2023-04-25T05:22:07;1.80;;;1.70;;
17832;SDS011;9041;49.718;21.798;2023-04-25T05:24:34;3.55;;;2.17;;
17832;SDS011;9041;49.718;21.798;2023-04-25T05:27:01;6.10;;;2.30;;
17832;SDS011;9041;49.718;21.798;2023-04-25T05:29:28;7.53;;;2.25;;
17832;SDS011;9041;49.718;21.798;2023-04-25T05:31:55;4.50;;;1.98;;
17832;SDS011;9041;49.718;21.798;2023-04-25T05:34:22;7.53;;;2.35;;
17832;SDS011;9041;49.718;21.798;2023-04-25T05:36:48;2.25;;;1.58;;
17832;SDS011;9041;49.718;21.798;2023-04-25T05:39:17;7.25;;;2.40;;
17832;SDS011;9041;49.718;21.798;2023-04-25T05:41:43;3.63;;;1.92;;
17832;SDS011;9041;49.718;21.798;2023-04-25T05:44:10;5.10;;;1.88;;
17832;SDS011;9041;49.718;21.798;2023-04-25T05:46:37;5.20;;;2.22;;
17832;SDS011;9041;49.718;21.798;2023-04-25T05:49:04;2.63;;;1.75;;
17832;SDS011;9041;49.718;21.798;2023-04-25T05:51:32;5.28;;;1.73;;
17832;SDS011;9041;49.718;21.798;2023-04-25T05:53:58;5.00;;;2.28;;
17832;SDS011;9041;49.718;21.798;2023-04-25T05:56:27;2.28;;;1.67;;
17832;SDS011;9041;49.718;21.798;2023-04-25T05:58:53;2.20;;;1.70;;
17832;SDS011;9041;49.718;21.798;2023-04-25T06:01:21;5.97;;;2.03;;
17832;SDS011;9041;49.718;21.798;2023-04-25T06:03:48;6.13;;;2.00;;
17832;SDS011;9041;49.718;21.798;2023-04-25T06:06:16;3.40;;;2.22;;
17832;SDS011;9041;49.718;21.798;2023-04-25T06:08:44;3.85;;;2.20;;
17832;SDS011;9041;49.718;21.798;2023-04-25T06:11:11;7.10;;;2.72;;
17832;SDS011;9041;49.718;21.798;2023-04-25T06:13:39;5.95;;;2.47;;
17832;SDS011;9041;49.718;21.798;2023-04-25T06:16:06;5.03;;;2.78;;
17832;SDS011;9041;49.718;21.798;2023-04-25T06:18:33;4.88;;;2.67;;
17832;SDS011;9041;49.718;21.798;2023-04-25T06:21:00;5.03;;;2.97;;
17832;SDS011;9041;49.718;21.798;2023-04-25T06:23:27;6.35;;;2.85;;
17832;SDS011;9041;49.718;21.798;2023-04-25T06:25:54;3.10;;;2.80;;
17832;SDS011;9041;49.718;21.798;2023-04-25T06:28:21;6.05;;;2.92;;
17832;SDS011;9041;49.718;21.798;2023-04-25T06:30:50;3.65;;;3.15;;
17832;SDS011;9041;49.718;21.798;2023-04-25T06:33:17;4.55;;;3.35;;
17832;SDS011;9041;49.718;21.798;2023-04-25T06:35:45;5.22;;;3.28;;
17832;SDS011;9041;49.718;21.798;2023-04-25T06:38:11;6.63;;;3.00;;
17832;SDS011;9041;49.718;21.798;2023-04-25T06:40:38;3.70;;;3.10;;
17832;SDS011;9041;49.718;21.798;2023-04-25T06:43:05;5.53;;;3.10;;
17832;SDS011;9041;49.718;21.798;2023-04-25T06:45:32;4.30;;;2.95;;
17832;SDS011;9041;49.718;21.798;2023-04-25T06:48:00;6.55;;;3.53;;
17832;SDS011;9041;49.718;21.798;2023-04-25T06:50:30;4.93;;;3.03;;
17832;SDS011;9041;49.718;21.798;2023-04-25T06:52:57;3.65;;;2.90;;
17832;SDS011;9041;49.718;21.798;2023-04-25T06:55:23;4.55;;;3.40;;
17832;SDS011;9041;49.718;21.798;2023-04-25T06:57:50;4.85;;;2.95;;
17832;SDS011;9041;49.718;21.798;2023-04-25T07:00:17;5.80;;;2.80;;
17832;SDS011;9041;49.718;21.798;2023-04-25T07:02:44;3.15;;;2.60;;
17832;SDS011;9041;49.718;21.798;2023-04-25T07:05:13;8.68;;;3.25;;
17832;SDS011;9041;49.718;21.798;2023-04-25T07:07:40;6.88;;;2.70;;
17832;SDS011;9041;49.718;21.798;2023-04-25T07:10:07;9.60;;;3.03;;
17832;SDS011;9041;49.718;21.798;2023-04-25T07:12:34;6.07;;;3.17;;
17832;SDS011;9041;49.718;21.798;2023-04-25T07:15:01;7.75;;;2.90;;
17832;SDS011;9041;49.718;21.798;2023-04-25T07:17:31;5.90;;;3.05;;
17832;SDS011;9041;49.718;21.798;2023-04-25T07:19:59;6.22;;;3.40;;
17832;SDS011;9041;49.718;21.798;2023-04-25T07:22:34;4.50;;;2.97;;
17832;SDS011;9041;49.718;21.798;2023-04-25T07:25:01;7.18;;;3.63;;
17832;SDS011;9041;49.718;21.798;2023-04-25T07:27:29;7.05;;;3.80;;
17832;SDS011;9041;49.718;21.798;2023-04-25T07:29:55;7.43;;;3.13;;
17832;SDS011;9041;49.718;21.798;2023-04-25T07:32:22;3.78;;;3.33;;
17832;SDS011;9041;49.718;21.798;2023-04-25T07:34:49;6.25;;;3.97;;
17832;SDS011;9041;49.718;21.798;2023-04-25T07:37:17;4.70;;;3.50;;
17832;SDS011;9041;49.718;21.798;2023-04-25T07:39:46;8.93;;;3.63;;
17832;SDS011;9041;49.718;21.798;2023-04-25T07:42:13;8.35;;;3.25;;
17832;SDS011;9041;49.718;21.798;2023-04-25T07:44:40;8.30;;;3.53;;
17832;SDS011;9041;49.718;21.798;2023-04-25T07:47:07;22.48;;;14.32;;
17832;SDS011;9041;49.718;21.798;2023-04-25T07:49:35;7.50;;;5.35;;
17832;SDS011;9041;49.718;21.798;2023-04-25T07:52:03;7.35;;;4.50;;
17832;SDS011;9041;49.718;21.798;2023-04-25T07:54:31;8.05;;;4.20;;
17832;SDS011;9041;49.718;21.798;2023-04-25T07:56:59;10.13;;;6.55;;
17832;SDS011;9041;49.718;21.798;2023-04-25T07:59:26;13.68;;;7.28;;
17832;SDS011;9041;49.718;21.798;2023-04-25T08:01:53;7.70;;;4.57;;
17832;SDS011;9041;49.718;21.798;2023-04-25T08:04:20;6.28;;;3.75;;
17832;SDS011;9041;49.718;21.798;2023-04-25T08:06:47;5.75;;;3.63;;
17832;SDS011;9041;49.718;21.798;2023-04-25T08:09:14;7.35;;;3.33;;
17832;SDS011;9041;49.718;21.798;2023-04-25T08:11:41;6.82;;;4.22;;
17832;SDS011;9041;49.718;21.798;2023-04-25T08:14:12;9.60;;;4.05;;
17832;SDS011;9041;49.718;21.798;2023-04-25T08:16:39;9.88;;;3.40;;
17832;SDS011;9041;49.718;21.798;2023-04-25T08:19:07;7.20;;;3.53;;
17832;SDS011;9041;49.718;21.798;2023-04-25T08:21:34;8.95;;;4.07;;
17832;SDS011;9041;49.718;21.798;2023-04-25T08:24:00;7.65;;;4.00;;
17832;SDS011;9041;49.718;21.798;2023-04-25T08:26:27;5.35;;;3.63;;
17832;SDS011;9041;49.718;21.798;2023-04-25T08:28:54;7.60;;;3.58;;
17832;SDS011;9041;49.718;21.798;2023-04-25T08:31:22;8.98;;;3.63;;
17832;SDS011;9041;49.718;21.798;2023-04-25T08:33:49;7.85;;;4.22;;
17832;SDS011;9041;49.718;21.798;2023-04-25T08:36:17;8.77;;;4.43;;
17832;SDS011;9041;49.718;21.798;2023-04-25T08:38:44;8.30;;;3.75;;
17832;SDS011;9041;49.718;21.798;2023-04-25T08:41:11;5.47;;;4.25;;
17832;SDS011;9041;49.718;21.798;2023-04-25T08:43:37;8.25;;;4.28;;
17832;SDS011;9041;49.718;21.798;2023-04-25T08:46:08;7.30;;;4.40;;
17832;SDS011;9041;49.718;21.798;2023-04-25T08:48:36;6.25;;;4.18;;
17832;SDS011;9041;49.718;21.798;2023-04-25T08:51:03;12.35;;;4.40;;
17832;SDS011;9041;49.718;21.798;2023-04-25T08:53:33;23.52;;;10.93;;
17832;SDS011;9041;49.718;21.798;2023-04-25T08:56:01;13.07;;;4.13;;
17832;SDS011;9041;49.718;21.798;2023-04-25T08:58:28;9.50;;;4.47;;
17832;SDS011;9041;49.718;21.798;2023-04-25T09:00:55;8.25;;;4.10;;
17832;SDS011;9041;49.718;21.798;2023-04-25T09:03:22;14.55;;;5.05;;
17832;SDS011;9041;49.718;21.798;2023-04-25T09:05:50;8.20;;;3.95;;
17832;SDS011;9041;49.718;21.798;2023-04-25T09:08:17;7.63;;;4.43;;
17832;SDS011;9041;49.718;21.798;2023-04-25T09:10:44;11.70;;;4.28;;
17832;SDS011;9041;49.718;21.798;2023-04-25T09:13:12;6.43;;;3.85;;
17832;SDS011;9041;49.718;21.798;2023-04-25T09:15:46;7.13;;;4.28;;
17832;SDS011;9041;49.718;21.798;2023-04-25T09:18:14;6.13;;;3.47;;
17832;SDS011;9041;49.718;21.798;2023-04-25T09:20:48;7.45;;;4.60;;
17832;SDS011;9041;49.718;21.798;2023-04-25T09:23:17;6.55;;;4.38;;
17832;SDS011;9041;49.718;21.798;2023-04-25T09:25:47;6.40;;;3.38;;
17832;SDS011;9041;49.718;21.798;2023-04-25T09:28:14;5.65;;;3.55;;
17832;SDS011;9041;49.718;21.798;2023-04-25T09:30:41;10.35;;;4.32;;
17832;SDS011;9041;49.718;21.798;2023-04-25T09:33:09;5.88;;;4.00;;
17832;SDS011;9041;49.718;21.798;2023-04-25T09:35:36;7.50;;;4.47;;
17832;SDS011;9041;49.718;21.798;2023-04-25T09:38:08;7.30;;;4.22;;
17832;SDS011;9041;49.718;21.798;2023-04-25T09:40:40;6.88;;;4.40;;
17832;SDS011;9041;49.718;21.798;2023-04-25T09:43:10;6.35;;;3.35;;
17832;SDS011;9041;49.718;21.798;2023-04-25T09:45:41;4.82;;;3.25;;
17832;SDS011;9041;49.718;21.798;2023-04-25T09:48:11;6.35;;;3.67;;
17832;SDS011;9041;49.718;21.798;2023-04-25T09:50:39;10.50;;;3.60;;
17832;SDS011;9041;49.718;21.798;2023-04-25T09:53:06;4.55;;;3.08;;
17832;SDS011;9041;49.718;21.798;2023-04-25T09:55:33;5.70;;;3.67;;
17832;SDS011;9041;49.718;21.798;2023-04-25T09:58:03;7.75;;;3.58;;
17832;SDS011;9041;49.718;21.798;2023-04-25T10:00:31;4.95;;;3.33;;
17832;SDS011;9041;49.718;21.798;2023-04-25T10:02:59;5.57;;;3.67;;
17832;SDS011;9041;49.718;21.798;2023-04-25T10:05:29;4.55;;;3.28;;
17832;SDS011;9041;49.718;21.798;2023-04-25T10:07:56;4.65;;;3.35;;
17832;SDS011;9041;49.718;21.798;2023-04-25T10:10:24;7.60;;;3.88;;
17832;SDS011;9041;49.718;21.798;2023-04-25T10:12:53;6.05;;;4.00;;
17832;SDS011;9041;49.718;21.798;2023-04-25T10:15:21;6.10;;;3.42;;
17832;SDS011;9041;49.718;21.798;2023-04-25T10:17:48;6.32;;;3.20;;
17832;SDS011;9041;49.718;21.798;2023-04-25T10:20:15;3.88;;;3.00;;
17832;SDS011;9041;49.718;21.798;2023-04-25T10:22:44;3.42;;;2.75;;
17832;SDS011;9041;49.718;21.798;2023-04-25T10:25:13;4.80;;;3.40;;
17832;SDS011;9041;49.718;21.798;2023-04-25T10:27:40;4.78;;;3.35;;
17832;SDS011;9041;49.718;21.798;2023-04-25T10:30:08;4.63;;;3.45;;
17832;SDS011;9041;49.718;21.798;2023-04-25T10:32:39;8.80;;;5.32;;
17832;SDS011;9041;49.718;21.798;2023-04-25T10:35:12;15.98;;;8.05;;
17832;SDS011;9041;49.718;21.798;2023-04-25T10:37:57;10.43;;;6.47;;
17832;SDS011;9041;49.718;21.798;2023-04-25T10:40:29;19.50;;;7.78;;
17832;SDS011;9041;49.718;21.798;2023-04-25T10:43:32;6.40;;;4.25;;
17832;SDS011;9041;49.718;21.798;2023-04-25T10:45:59;7.03;;;4.00;;
17832;SDS011;9041;49.718;21.798;2023-04-25T10:48:28;6.95;;;3.67;;
17832;SDS011;9041;49.718;21.798;2023-04-25T10:51:06;5.28;;;3.72;;
17832;SDS011;9041;49.718;21.798;2023-04-25T10:53:34;9.05;;;3.40;;
17832;SDS011;9041;49.718;21.798;2023-04-25T10:56:08;6.00;;;3.33;;
17832;SDS011;9041;49.718;21.798;2023-04-25T10:58:41;7.55;;;3.63;;
17832;SDS011;9041;49.718;21.798;2023-04-25T11:01:08;5.60;;;3.38;;
17832;SDS011;9041;49.718;21.798;2023-04-25T11:03:39;5.50;;;2.95;;
17832;SDS011;9041;49.718;21.798;2023-04-25T11:06:09;6.60;;;3.92;;
17832;SDS011;9041;49.718;21.798;2023-04-25T11:08:48;6.00;;;3.90;;
17832;SDS011;9041;49.718;21.798;2023-04-25T11:11:17;4.82;;;3.40;;
17832;SDS011;9041;49.718;21.798;2023-04-25T11:13:47;6.78;;;4.00;;
17832;SDS011;9041;49.718;21.798;2023-04-25T11:16:14;5.03;;;3.00;;
17832;SDS011;9041;49.718;21.798;2023-04-25T11:18:43;4.30;;;3.13;;
17832;SDS011;9041;49.718;21.798;2023-04-25T11:21:10;4.75;;;3.40;;
17832;SDS011;9041;49.718;21.798;2023-04-25T11:23:37;5.38;;;3.30;;
17832;SDS011;9041;49.718;21.798;2023-04-25T11:26:04;4.32;;;2.92;;
17832;SDS011;9041;49.718;21.798;2023-04-25T11:28:30;5.32;;;2.97;;
17832;SDS011;9041;49.718;21.798;2023-04-25T11:30:57;5.50;;;2.97;;
17832;SDS011;9041;49.718;21.798;2023-04-25T11:33:24;7.43;;;2.83;;
17832;SDS011;9041;49.718;21.798;2023-04-25T11:35:54;4.60;;;2.80;;
17832;SDS011;9041;49.718;21.798;2023-04-25T11:38:22;4.38;;;2.95;;
17832;SDS011;9041;49.718;21.798;2023-04-25T11:40:49;3.15;;;2.40;;
17832;SDS011;9041;49.718;21.798;2023-04-25T11:43:17;9.23;;;3.20;;
17832;SDS011;9041;49.718;21.798;2023-04-25T11:45:45;3.67;;;2.42;;
17832;SDS011;9041;49.718;21.798;2023-04-25T11:48:13;4.72;;;2.17;;
17832;SDS011;9041;49.718;21.798;2023-04-25T11:50:40;3.97;;;2.28;;
17832;SDS011;9041;49.718;21.798;2023-04-25T11:53:08;6.40;;;3.75;;
17832;SDS011;9041;49.718;21.798;2023-04-25T11:55:35;4.25;;;2.90;;
17832;SDS011;9041;49.718;21.798;2023-04-25T11:58:03;3.95;;;2.40;;
17832;SDS011;9041;49.718;21.798;2023-04-25T12:00:30;3.75;;;2.30;;
17832;SDS011;9041;49.718;21.798;2023-04-25T12:02:57;4.40;;;2.15;;
17832;SDS011;9041;49.718;21.798;2023-04-25T12:05:25;2.67;;;2.00;;
17832;SDS011;9041;49.718;21.798;2023-04-25T12:08:12;3.33;;;2.08;;
17832;SDS011;9041;49.718;21.798;2023-04-25T12:10:40;5.45;;;2.30;;
17832;SDS011;9041;49.718;21.798;2023-04-25T12:13:18;6.00;;;2.00;;
17832;SDS011;9041;49.718;21.798;2023-04-25T12:15:45;5.00;;;2.50;;
17832;SDS011;9041;49.718;21.798;2023-04-25T12:18:12;3.28;;;1.77;;
17832;SDS011;9041;49.718;21.798;2023-04-25T12:20:39;5.03;;;2.03;;
17832;SDS011;9041;49.718;21.798;2023-04-25T12:23:07;2.90;;;1.67;;
17832;SDS011;9041;49.718;21.798;2023-04-25T12:25:38;3.60;;;2.17;;
17832;SDS011;9041;49.718;21.798;2023-04-25T12:28:09;2.65;;;1.52;;
17832;SDS011;9041;49.718;21.798;2023-04-25T12:30:51;2.92;;;1.65;;
17832;SDS011;9041;49.718;21.798;2023-04-25T12:33:20;2.30;;;1.63;;
17832;SDS011;9041;49.718;21.798;2023-04-25T12:35:46;2.92;;;2.00;;
17832;SDS011;9041;49.718;21.798;2023-04-25T12:38:20;3.80;;;1.80;;
17832;SDS011;9041;49.718;21.798;2023-04-25T12:40:48;2.88;;;1.75;;
17832;SDS011;9041;49.718;21.798;2023-04-25T12:43:15;3.03;;;1.42;;
17832;SDS011;9041;49.718;21.798;2023-04-25T12:45:42;2.22;;;1.40;;
17832;SDS011;9041;49.718;21.798;2023-04-25T12:48:09;2.35;;;1.80;;
17832;SDS011;9041;49.718;21.798;2023-04-25T12:50:36;5.65;;;1.80;;
17832;SDS011;9041;49.718;21.798;2023-04-25T12:53:03;5.25;;;2.10;;
17832;SDS011;9041;49.718;21.798;2023-04-25T12:55:30;2.05;;;1.75;;
17832;SDS011;9041;49.718;21.798;2023-04-25T12:57:58;6.05;;;2.00;;
17832;SDS011;9041;49.718;21.798;2023-04-25T13:00:25;2.40;;;1.63;;
17832;SDS011;9041;49.718;21.798;2023-04-25T13:02:52;5.13;;;1.50;;
17832;SDS011;9041;49.718;21.798;2023-04-25T13:05:19;4.22;;;1.42;;
17832;SDS011;9041;49.718;21.798;2023-04-25T13:07:46;2.95;;;1.83;;
17832;SDS011;9041;49.718;21.798;2023-04-25T13:10:12;5.05;;;1.70;;
17832;SDS011;9041;49.718;21.798;2023-04-25T13:12:39;3.47;;;1.65;;
17832;SDS011;9041;49.718;21.798;2023-04-25T13:15:08;1.58;;;1.30;;
17832;SDS011;9041;49.718;21.798;2023-04-25T13:17:36;2.08;;;1.55;;
17832;SDS011;9041;49.718;21.798;2023-04-25T13:20:04;4.43;;;1.40;;
17832;SDS011;9041;49.718;21.798;2023-04-25T13:22:33;2.30;;;1.60;;
17832;SDS011;9041;49.718;21.798;2023-04-25T13:25:02;2.60;;;1.52;;
17832;SDS011;9041;49.718;21.798;2023-04-25T13:27:29;2.08;;;1.40;;
17832;SDS011;9041;49.718;21.798;2023-04-25T13:29:57;3.72;;;1.90;;
17832;SDS011;9041;49.718;21.798;2023-04-25T13:32:26;3.58;;;1.70;;
17832;SDS011;9041;49.718;21.798;2023-04-25T13:34:53;4.03;;;1.73;;
17832;SDS011;9041;49.718;21.798;2023-04-25T13:37:21;2.78;;;1.98;;
17832;SDS011;9041;49.718;21.798;2023-04-25T13:39:49;5.13;;;1.90;;
17832;SDS011;9041;49.718;21.798;2023-04-25T13:42:16;3.35;;;2.30;;
17832;SDS011;9041;49.718;21.798;2023-04-25T13:44:43;3.40;;;2.53;;
17832;SDS011;9041;49.718;21.798;2023-04-25T13:47:10;3.65;;;2.67;;
17832;SDS011;9041;49.718;21.798;2023-04-25T13:49:38;5.55;;;2.20;;
17832;SDS011;9041;49.718;21.798;2023-04-25T13:52:05;3.33;;;2.40;;
17832;SDS011;9041;49.718;21.798;2023-04-25T13:54:33;3.33;;;2.03;;
17832;SDS011;9041;49.718;21.798;2023-04-25T13:56:59;6.85;;;2.35;;
17832;SDS011;9041;49.718;21.798;2023-04-25T13:59:27;4.18;;;2.28;;
17832;SDS011;9041;49.718;21.798;2023-04-25T14:01:53;5.28;;;2.75;;
17832;SDS011;9041;49.718;21.798;2023-04-25T14:04:20;4.93;;;2.35;;
17832;SDS011;9041;49.718;21.798;2023-04-25T14:06:49;3.50;;;2.20;;
17832;SDS011;9041;49.718;21.798;2023-04-25T14:09:16;4.32;;;2.15;;
17832;SDS011;9041;49.718;21.798;2023-04-25T14:11:43;7.40;;;2.45;;
17832;SDS011;9041;49.718;21.798;2023-04-25T14:14:10;3.85;;;2.67;;
17832;SDS011;9041;49.718;21.798;2023-04-25T14:16:38;4.22;;;2.72;;
17832;SDS011;9041;49.718;21.798;2023-04-25T14:19:05;6.78;;;2.85;;
17832;SDS011;9041;49.718;21.798;2023-04-25T14:21:32;5.22;;;3.10;;
17832;SDS011;9041;49.718;21.798;2023-04-25T14:24:01;6.78;;;2.80;;
17832;SDS011;9041;49.718;21.798;2023-04-25T14:26:30;4.85;;;3.15;;
17832;SDS011;9041;49.718;21.798;2023-04-25T14:28:56;8.55;;;3.13;;
17832;SDS011;9041;49.718;21.798;2023-04-25T14:31:23;7.10;;;3.30;;
17832;SDS011;9041;49.718;21.798;2023-04-25T14:33:50;6.30;;;3.15;;
17832;SDS011;9041;49.718;21.798;2023-04-25T14:36:17;6.45;;;3.25;;
17832;SDS011;9041;49.718;21.798;2023-04-25T14:38:44;5.97;;;3.05;;
17832;SDS011;9041;49.718;21.798;2023-04-25T14:41:13;6.95;;;3.78;;
17832;SDS011;9041;49.718;21.798;2023-04-25T14:43:39;4.65;;;2.90;;
17832;SDS011;9041;49.718;21.798;2023-04-25T14:46:06;4.45;;;3.10;;